sensor_id;sensor_type;location;lat;lon;timestamp;temperature;humidity
11399;DHT22;5755;48.116;11.608;2023-07-20T00:00:08;21.90;23.80
11399;DHT22;5755;48.116;11.608;2023-07-20T00:02:35;21.90;23.70
11399;DHT22;5755;48.116;11.608;2023-07-20T00:05:02;21.80;23.80
11399;DHT22;5755;48.116;11.608;2023-07-20T00:07:29;21.80;23.60
11399;DHT22;5755;48.116;11.608;2023-07-20T00:09:56;21.70;23.90
11399;DHT22;5755;48.116;11.608;2023-07-20T00:12:24;21.70;23.80
11399;DHT22;5755;48.116;11.608;2023-07-20T00:14:51;21.70;23.70
11399;DHT22;5755;48.116;11.608;2023-07-20T00:17:19;21.70;23.50
11399;DHT22;5755;48.116;11.608;2023-07-20T00:19:46;21.60;24.30
11399;DHT22;5755;48.116;11.608;2023-07-20T00:22:13;21.60;24.10
11399;DHT22;5755;48.116;11.608;2023-07-20T00:24:40;21.70;24.20
11399;DHT22;5755;48.116;11.608;2023-07-20T00:27:07;21.60;24.10
11399;DHT22;5755;48.116;11.608;2023-07-20T00:29:36;21.50;24.10
11399;DHT22;5755;48.116;11.608;2023-07-20T00:32:03;21.50;24.40
11399;DHT22;5755;48.116;11.608;2023-07-20T00:34:31;21.50;24.50
11399;DHT22;5755;48.116;11.608;2023-07-20T00:36:58;21.50;24.00
11399;DHT22;5755;48.116;11.608;2023-07-20T00:39:25;21.50;24.30
11399;DHT22;5755;48.116;11.608;2023-07-20T00:41:52;21.50;24.50
11399;DHT22;5755;48.116;11.608;2023-07-20T00:44:19;21.40;24.50
11399;DHT22;5755;48.116;11.608;2023-07-20T00:46:48;21.40;25.10
11399;DHT22;5755;48.116;11.608;2023-07-20T00:49:15;21.40;25.00
11399;DHT22;5755;48.116;11.608;2023-07-20T00:51:46;21.50;24.50
11399;DHT22;5755;48.116;11.608;2023-07-20T00:54:14;21.50;24.50
11399;DHT22;5755;48.116;11.608;2023-07-20T00:56:41;21.40;24.40
11399;DHT22;5755;48.116;11.608;2023-07-20T00:59:09;21.50;24.50
11399;DHT22;5755;48.116;11.608;2023-07-20T01:01:37;21.50;24.70
11399;DHT22;5755;48.116;11.608;2023-07-20T01:04:05;21.50;24.60
11399;DHT22;5755;48.116;11.608;2023-07-20T01:06:50;21.50;25.40
11399;DHT22;5755;48.116;11.608;2023-07-20T01:09:26;21.60;24.80
11399;DHT22;5755;48.116;11.608;2023-07-20T01:12:06;21.50;24.50
11399;DHT22;5755;48.116;11.608;2023-07-20T01:14:34;21.40;25.90
11399;DHT22;5755;48.116;11.608;2023-07-20T01:17:02;21.30;25.50
11399;DHT22;5755;48.116;11.608;2023-07-20T01:19:30;21.30;26.40
11399;DHT22;5755;48.116;11.608;2023-07-20T01:22:02;21.30;26.70
11399;DHT22;5755;48.116;11.608;2023-07-20T01:24:49;21.40;26.40
11399;DHT22;5755;48.116;11.608;2023-07-20T01:27:54;21.30;26.70
11399;DHT22;5755;48.116;11.608;2023-07-20T01:30:45;21.20;27.20
11399;DHT22;5755;48.116;11.608;2023-07-20T01:33:17;21.30;27.20
11399;DHT22;5755;48.116;11.608;2023-07-20T01:35:48;21.30;27.20
11399;DHT22;5755;48.116;11.608;2023-07-20T01:38:17;21.20;27.60
11399;DHT22;5755;48.116;11.608;2023-07-20T01:40:45;21.30;27.70
11399;DHT22;5755;48.116;11.608;2023-07-20T01:43:12;21.10;29.20
11399;DHT22;5755;48.116;11.608;2023-07-20T01:45:39;21.10;28.50
11399;DHT22;5755;48.116;11.608;2023-07-20T01:48:06;21.00;29.00
11399;DHT22;5755;48.116;11.608;2023-07-20T01:50:35;21.00;28.70
11399;DHT22;5755;48.116;11.608;2023-07-20T01:53:02;21.00;29.60
11399;DHT22;5755;48.116;11.608;2023-07-20T01:55:29;20.90;30.20
11399;DHT22;5755;48.116;11.608;2023-07-20T01:57:56;20.90;31.10
11399;DHT22;5755;48.116;11.608;2023-07-20T02:00:25;20.80;31.80
11399;DHT22;5755;48.116;11.608;2023-07-20T02:02:51;20.80;32.70
11399;DHT22;5755;48.116;11.608;2023-07-20T02:05:18;20.80;32.80
11399;DHT22;5755;48.116;11.608;2023-07-20T02:07:47;20.70;32.60
11399;DHT22;5755;48.116;11.608;2023-07-20T02:10:14;20.80;32.80
11399;DHT22;5755;48.116;11.608;2023-07-20T02:12:41;20.80;32.00
11399;DHT22;5755;48.116;11.608;2023-07-20T02:15:09;20.90;30.80
11399;DHT22;5755;48.116;11.608;2023-07-20T02:17:36;21.00;30.30
11399;DHT22;5755;48.116;11.608;2023-07-20T02:20:06;21.00;29.60
11399;DHT22;5755;48.116;11.608;2023-07-20T02:22:35;20.90;30.40
11399;DHT22;5755;48.116;11.608;2023-07-20T02:25:04;20.90;29.60
11399;DHT22;5755;48.116;11.608;2023-07-20T02:27:32;20.90;29.80
11399;DHT22;5755;48.116;11.608;2023-07-20T02:29:59;20.90;30.10
11399;DHT22;5755;48.116;11.608;2023-07-20T02:32:27;20.80;29.80
11399;DHT22;5755;48.116;11.608;2023-07-20T02:34:54;20.80;32.80
11399;DHT22;5755;48.116;11.608;2023-07-20T02:37:21;20.70;30.60
11399;DHT22;5755;48.116;11.608;2023-07-20T02:39:48;20.60;30.30
11399;DHT22;5755;48.116;11.608;2023-07-20T02:42:17;20.50;32.50
11399;DHT22;5755;48.116;11.608;2023-07-20T02:44:45;20.40;32.40
11399;DHT22;5755;48.116;11.608;2023-07-20T02:47:12;20.40;32.40
11399;DHT22;5755;48.116;11.608;2023-07-20T02:49:39;20.30;32.30
11399;DHT22;5755;48.116;11.608;2023-07-20T02:52:06;20.40;32.40
11399;DHT22;5755;48.116;11.608;2023-07-20T02:54:33;20.50;30.10
11399;DHT22;5755;48.116;11.608;2023-07-20T02:57:00;20.40;31.70
11399;DHT22;5755;48.116;11.608;2023-07-20T02:59:28;20.40;32.40
11399;DHT22;5755;48.116;11.608;2023-07-20T03:01:55;20.30;31.60
11399;DHT22;5755;48.116;11.608;2023-07-20T03:04:23;20.20;32.60
11399;DHT22;5755;48.116;11.608;2023-07-20T03:06:50;20.00;40.00
11399;DHT22;5755;48.116;11.608;2023-07-20T03:09:17;19.90;42.10
11399;DHT22;5755;48.116;11.608;2023-07-20T03:11:44;19.70;48.10
11399;DHT22;5755;48.116;11.608;2023-07-20T03:14:11;19.50;50.30
11399;DHT22;5755;48.116;11.608;2023-07-20T03:16:39;19.40;53.10
11399;DHT22;5755;48.116;11.608;2023-07-20T03:19:07;19.30;53.90
11399;DHT22;5755;48.116;11.608;2023-07-20T03:21:34;19.30;55.30
11399;DHT22;5755;48.116;11.608;2023-07-20T03:24:06;19.20;55.20
11399;DHT22;5755;48.116;11.608;2023-07-20T03:26:33;19.10;55.10
11399;DHT22;5755;48.116;11.608;2023-07-20T03:29:00;19.10;55.10
11399;DHT22;5755;48.116;11.608;2023-07-20T03:31:27;19.00;55.00
11399;DHT22;5755;48.116;11.608;2023-07-20T03:33:55;19.00;55.00
11399;DHT22;5755;48.116;11.608;2023-07-20T03:36:22;19.00;56.10
11399;DHT22;5755;48.116;11.608;2023-07-20T03:38:49;19.00;55.00
11399;DHT22;5755;48.116;11.608;2023-07-20T03:41:16;18.90;60.00
11399;DHT22;5755;48.116;11.608;2023-07-20T03:43:45;18.80;63.00
11399;DHT22;5755;48.116;11.608;2023-07-20T03:46:12;18.70;65.00
11399;DHT22;5755;48.116;11.608;2023-07-20T03:48:39;18.70;68.00
11399;DHT22;5755;48.116;11.608;2023-07-20T03:51:07;18.70;66.90
11399;DHT22;5755;48.116;11.608;2023-07-20T03:53:34;18.60;65.80
11399;DHT22;5755;48.116;11.608;2023-07-20T03:56:02;18.70;66.60
11399;DHT22;5755;48.116;11.608;2023-07-20T03:58:29;18.70;66.50
11399;DHT22;5755;48.116;11.608;2023-07-20T04:00:57;18.70;66.80
11399;DHT22;5755;48.116;11.608;2023-07-20T04:03:25;18.70;66.40
11399;DHT22;5755;48.116;11.608;2023-07-20T04:05:53;18.70;64.70
11399;DHT22;5755;48.116;11.608;2023-07-20T04:08:23;18.80;64.00
11399;DHT22;5755;48.116;11.608;2023-07-20T04:10:50;18.80;65.60
11399;DHT22;5755;48.116;11.608;2023-07-20T04:13:17;18.80;65.00
11399;DHT22;5755;48.116;11.608;2023-07-20T04:15:44;18.80;65.30
11399;DHT22;5755;48.116;11.608;2023-07-20T04:18:11;18.70;65.20
11399;DHT22;5755;48.116;11.608;2023-07-20T04:20:38;18.70;65.60
11399;DHT22;5755;48.116;11.608;2023-07-20T04:23:05;18.70;66.60
11399;DHT22;5755;48.116;11.608;2023-07-20T04:25:33;18.70;65.80
11399;DHT22;5755;48.116;11.608;2023-07-20T04:28:04;18.70;65.90
11399;DHT22;5755;48.116;11.608;2023-07-20T04:30:34;18.70;66.00
11399;DHT22;5755;48.116;11.608;2023-07-20T04:33:01;18.70;67.00
11399;DHT22;5755;48.116;11.608;2023-07-20T04:35:51;18.80;65.60
11399;DHT22;5755;48.116;11.608;2023-07-20T04:38:19;18.70;66.60
11399;DHT22;5755;48.116;11.608;2023-07-20T04:40:48;18.70;66.70
11399;DHT22;5755;48.116;11.608;2023-07-20T04:43:17;18.80;65.50
11399;DHT22;5755;48.116;11.608;2023-07-20T04:45:44;18.80;65.00
11399;DHT22;5755;48.116;11.608;2023-07-20T04:48:13;18.80;65.50
11399;DHT22;5755;48.116;11.608;2023-07-20T04:50:41;18.80;66.00
11399;DHT22;5755;48.116;11.608;2023-07-20T04:53:09;18.80;65.80
11399;DHT22;5755;48.116;11.608;2023-07-20T04:55:36;18.90;64.40
11399;DHT22;5755;48.116;11.608;2023-07-20T04:58:05;19.00;62.90
11399;DHT22;5755;48.116;11.608;2023-07-20T05:00:33;19.00;61.80
11399;DHT22;5755;48.116;11.608;2023-07-20T05:03:00;19.10;59.80
11399;DHT22;5755;48.116;11.608;2023-07-20T05:05:27;19.10;60.60
11399;DHT22;5755;48.116;11.608;2023-07-20T05:07:54;19.10;62.10
11399;DHT22;5755;48.116;11.608;2023-07-20T05:10:21;19.10;62.30
11399;DHT22;5755;48.116;11.608;2023-07-20T05:12:47;19.10;56.80
11399;DHT22;5755;48.116;11.608;2023-07-20T05:15:16;19.10;55.10
11399;DHT22;5755;48.116;11.608;2023-07-20T05:17:43;19.20;55.20
11399;DHT22;5755;48.116;11.608;2023-07-20T05:20:11;19.10;54.80
11399;DHT22;5755;48.116;11.608;2023-07-20T05:22:38;19.10;53.30
11399;DHT22;5755;48.116;11.608;2023-07-20T05:25:07;19.20;50.00
11399;DHT22;5755;48.116;11.608;2023-07-20T05:27:36;19.30;49.70
11399;DHT22;5755;48.116;11.608;2023-07-20T05:30:04;19.30;48.90
11399;DHT22;5755;48.116;11.608;2023-07-20T05:32:34;19.40;43.10
11399;DHT22;5755;48.116;11.608;2023-07-20T05:35:00;19.50;43.30
11399;DHT22;5755;48.116;11.608;2023-07-20T05:37:27;19.60;43.90
11399;DHT22;5755;48.116;11.608;2023-07-20T05:39:54;19.60;45.90
11399;DHT22;5755;48.116;11.608;2023-07-20T05:42:21;19.60;40.30
11399;DHT22;5755;48.116;11.608;2023-07-20T05:44:48;19.50;40.80
11399;DHT22;5755;48.116;11.608;2023-07-20T05:47:18;19.50;38.00
11399;DHT22;5755;48.116;11.608;2023-07-20T05:49:46;19.60;37.90
11399;DHT22;5755;48.116;11.608;2023-07-20T05:52:13;19.50;36.20
11399;DHT22;5755;48.116;11.608;2023-07-20T05:54:40;19.60;35.00
11399;DHT22;5755;48.116;11.608;2023-07-20T05:57:07;19.50;36.80
11399;DHT22;5755;48.116;11.608;2023-07-20T05:59:34;19.50;35.10
11399;DHT22;5755;48.116;11.608;2023-07-20T06:02:01;19.50;35.30
11399;DHT22;5755;48.116;11.608;2023-07-20T06:04:28;19.40;35.00
11399;DHT22;5755;48.116;11.608;2023-07-20T06:06:57;19.40;33.90
11399;DHT22;5755;48.116;11.608;2023-07-20T06:09:23;19.40;34.60
11399;DHT22;5755;48.116;11.608;2023-07-20T06:11:50;19.40;35.00
11399;DHT22;5755;48.116;11.608;2023-07-20T06:14:17;19.40;35.40
11399;DHT22;5755;48.116;11.608;2023-07-20T06:16:44;19.40;34.10
11399;DHT22;5755;48.116;11.608;2023-07-20T06:19:11;19.60;36.10
11399;DHT22;5755;48.116;11.608;2023-07-20T06:21:38;19.70;36.20
11399;DHT22;5755;48.116;11.608;2023-07-20T06:24:07;19.90;29.70
11399;DHT22;5755;48.116;11.608;2023-07-20T06:26:34;20.20;28.30
11399;DHT22;5755;48.116;11.608;2023-07-20T06:29:04;20.50;27.80
11399;DHT22;5755;48.116;11.608;2023-07-20T06:31:32;20.60;27.90
11399;DHT22;5755;48.116;11.608;2023-07-20T06:33:59;20.70;25.70
11399;DHT22;5755;48.116;11.608;2023-07-20T06:36:26;20.60;29.00
11399;DHT22;5755;48.116;11.608;2023-07-20T06:38:53;20.60;25.50
11399;DHT22;5755;48.116;11.608;2023-07-20T06:41:22;20.50;26.70
11399;DHT22;5755;48.116;11.608;2023-07-20T06:43:49;20.40;26.10
11399;DHT22;5755;48.116;11.608;2023-07-20T06:46:17;20.40;26.90
11399;DHT22;5755;48.116;11.608;2023-07-20T06:48:44;20.50;25.00
11399;DHT22;5755;48.116;11.608;2023-07-20T06:51:11;20.50;25.10
11399;DHT22;5755;48.116;11.608;2023-07-20T06:53:38;20.40;26.10
11399;DHT22;5755;48.116;11.608;2023-07-20T06:56:05;20.50;25.80
11399;DHT22;5755;48.116;11.608;2023-07-20T06:58:33;20.60;24.90
11399;DHT22;5755;48.116;11.608;2023-07-20T07:01:04;20.60;26.30
11399;DHT22;5755;48.116;11.608;2023-07-20T07:03:31;20.80;24.70
11399;DHT22;5755;48.116;11.608;2023-07-20T07:05:58;20.90;25.20
11399;DHT22;5755;48.116;11.608;2023-07-20T07:08:25;21.00;26.00
11399;DHT22;5755;48.116;11.608;2023-07-20T07:10:52;20.90;23.60
11399;DHT22;5755;48.116;11.608;2023-07-20T07:13:19;20.90;24.50
11399;DHT22;5755;48.116;11.608;2023-07-20T07:15:47;21.10;24.80
11399;DHT22;5755;48.116;11.608;2023-07-20T07:18:14;21.20;25.00
11399;DHT22;5755;48.116;11.608;2023-07-20T07:20:41;21.30;25.00
11399;DHT22;5755;48.116;11.608;2023-07-20T07:23:08;21.40;25.10
11399;DHT22;5755;48.116;11.608;2023-07-20T07:25:35;21.80;22.80
11399;DHT22;5755;48.116;11.608;2023-07-20T07:28:02;22.20;20.00
11399;DHT22;5755;48.116;11.608;2023-07-20T07:30:29;22.20;20.10
11399;DHT22;5755;48.116;11.608;2023-07-20T07:32:57;22.70;17.40
11399;DHT22;5755;48.116;11.608;2023-07-20T07:35:24;23.00;17.40
11399;DHT22;5755;48.116;11.608;2023-07-20T07:37:51;23.20;16.40
11399;DHT22;5755;48.116;11.608;2023-07-20T07:40:18;23.10;16.50
11399;DHT22;5755;48.116;11.608;2023-07-20T07:42:44;23.10;16.80
11399;DHT22;5755;48.116;11.608;2023-07-20T07:45:11;22.80;18.30
11399;DHT22;5755;48.116;11.608;2023-07-20T07:47:39;22.70;17.80
11399;DHT22;5755;48.116;11.608;2023-07-20T07:50:08;22.80;17.30
11399;DHT22;5755;48.116;11.608;2023-07-20T07:52:35;22.80;18.60
11399;DHT22;5755;48.116;11.608;2023-07-20T07:55:02;22.70;17.00
11399;DHT22;5755;48.116;11.608;2023-07-20T07:57:29;22.80;16.30
11399;DHT22;5755;48.116;11.608;2023-07-20T07:59:56;22.60;15.90
11399;DHT22;5755;48.116;11.608;2023-07-20T08:02:23;22.50;17.30
11399;DHT22;5755;48.116;11.608;2023-07-20T08:04:50;22.70;16.50
11399;DHT22;5755;48.116;11.608;2023-07-20T08:07:19;22.50;17.10
11399;DHT22;5755;48.116;11.608;2023-07-20T08:09:46;22.80;16.00
11399;DHT22;5755;48.116;11.608;2023-07-20T08:12:13;22.80;16.40
11399;DHT22;5755;48.116;11.608;2023-07-20T08:14:43;22.90;16.30
11399;DHT22;5755;48.116;11.608;2023-07-20T08:17:09;22.90;17.70
11399;DHT22;5755;48.116;11.608;2023-07-20T08:19:37;22.90;17.30
11399;DHT22;5755;48.116;11.608;2023-07-20T08:22:07;22.90;18.60
11399;DHT22;5755;48.116;11.608;2023-07-20T08:24:39;22.80;18.20
11399;DHT22;5755;48.116;11.608;2023-07-20T08:27:06;22.80;18.20
11399;DHT22;5755;48.116;11.608;2023-07-20T08:29:33;22.90;18.20
11399;DHT22;5755;48.116;11.608;2023-07-20T08:32:00;23.10;17.30
11399;DHT22;5755;48.116;11.608;2023-07-20T08:34:27;23.00;16.90
11399;DHT22;5755;48.116;11.608;2023-07-20T08:36:55;23.00;17.70
11399;DHT22;5755;48.116;11.608;2023-07-20T08:39:22;23.00;16.90
11399;DHT22;5755;48.116;11.608;2023-07-20T08:41:51;22.90;17.70
11399;DHT22;5755;48.116;11.608;2023-07-20T08:44:18;23.20;18.10
11399;DHT22;5755;48.116;11.608;2023-07-20T08:46:45;23.50;18.30
11399;DHT22;5755;48.116;11.608;2023-07-20T08:49:13;24.10;17.80
11399;DHT22;5755;48.116;11.608;2023-07-20T08:51:42;24.40;17.00
11399;DHT22;5755;48.116;11.608;2023-07-20T08:54:11;24.60;15.60
11399;DHT22;5755;48.116;11.608;2023-07-20T08:56:40;24.80;14.10
11399;DHT22;5755;48.116;11.608;2023-07-20T08:59:09;24.80;14.10
11399;DHT22;5755;48.116;11.608;2023-07-20T09:01:39;25.20;14.20
11399;DHT22;5755;48.116;11.608;2023-07-20T09:04:06;25.30;14.30
11399;DHT22;5755;48.116;11.608;2023-07-20T09:06:34;25.50;14.50
11399;DHT22;5755;48.116;11.608;2023-07-20T09:09:01;25.70;13.80
11399;DHT22;5755;48.116;11.608;2023-07-20T09:11:28;25.90;14.60
11399;DHT22;5755;48.116;11.608;2023-07-20T09:14:05;25.60;14.40
11399;DHT22;5755;48.116;11.608;2023-07-20T09:16:47;26.10;12.70
11399;DHT22;5755;48.116;11.608;2023-07-20T09:19:15;26.30;12.90
11399;DHT22;5755;48.116;11.608;2023-07-20T09:21:44;26.00;13.40
11399;DHT22;5755;48.116;11.608;2023-07-20T09:24:11;26.30;12.90
11399;DHT22;5755;48.116;11.608;2023-07-20T09:26:41;26.60;13.60
11399;DHT22;5755;48.116;11.608;2023-07-20T09:29:08;27.10;11.10
11399;DHT22;5755;48.116;11.608;2023-07-20T09:31:37;27.60;10.60
11399;DHT22;5755;48.116;11.608;2023-07-20T09:34:04;27.50;10.30
11399;DHT22;5755;48.116;11.608;2023-07-20T09:36:33;27.50;10.80
11399;DHT22;5755;48.116;11.608;2023-07-20T09:39:00;28.90;8.90
11399;DHT22;5755;48.116;11.608;2023-07-20T09:41:27;28.90;7.50
11399;DHT22;5755;48.116;11.608;2023-07-20T09:43:54;27.80;8.20
11399;DHT22;5755;48.116;11.608;2023-07-20T09:46:21;26.90;10.10
11399;DHT22;5755;48.116;11.608;2023-07-20T09:49:04;26.20;12.50
11399;DHT22;5755;48.116;11.608;2023-07-20T09:51:34;26.90;11.00
11399;DHT22;5755;48.116;11.608;2023-07-20T09:54:02;27.80;9.60
11399;DHT22;5755;48.116;11.608;2023-07-20T09:56:30;28.30;7.30
11399;DHT22;5755;48.116;11.608;2023-07-20T09:58:57;27.80;8.50
11399;DHT22;5755;48.116;11.608;2023-07-20T10:01:26;27.40;8.30
11399;DHT22;5755;48.116;11.608;2023-07-20T10:03:54;27.00;12.00
11399;DHT22;5755;48.116;11.608;2023-07-20T10:06:23;27.60;8.80
11399;DHT22;5755;48.116;11.608;2023-07-20T10:08:53;28.00;8.30
11399;DHT22;5755;48.116;11.608;2023-07-20T10:11:24;28.10;8.30
11399;DHT22;5755;48.116;11.608;2023-07-20T10:13:53;27.10;10.30
11399;DHT22;5755;48.116;11.608;2023-07-20T10:16:34;26.50;9.60
11399;DHT22;5755;48.116;11.608;2023-07-20T10:19:05;26.40;9.80
11399;DHT22;5755;48.116;11.608;2023-07-20T10:21:40;26.10;10.90
11399;DHT22;5755;48.116;11.608;2023-07-20T10:24:08;26.00;10.90
11399;DHT22;5755;48.116;11.608;2023-07-20T10:26:37;25.90;11.20
11399;DHT22;5755;48.116;11.608;2023-07-20T10:29:04;25.70;13.10
11399;DHT22;5755;48.116;11.608;2023-07-20T10:31:32;25.60;11.70
11399;DHT22;5755;48.116;11.608;2023-07-20T10:34:00;25.20;14.40
11399;DHT22;5755;48.116;11.608;2023-07-20T10:36:28;24.70;14.00
11399;DHT22;5755;48.116;11.608;2023-07-20T10:38:57;24.30;13.70
11399;DHT22;5755;48.116;11.608;2023-07-20T10:41:28;24.40;13.80
11399;DHT22;5755;48.116;11.608;2023-07-20T10:43:59;24.50;13.90
11399;DHT22;5755;48.116;11.608;2023-07-20T10:46:34;25.20;14.30
11399;DHT22;5755;48.116;11.608;2023-07-20T10:49:03;25.90;13.20
11399;DHT22;5755;48.116;11.608;2023-07-20T10:51:30;26.50;12.70
11399;DHT22;5755;48.116;11.608;2023-07-20T10:54:08;26.50;11.60
11399;DHT22;5755;48.116;11.608;2023-07-20T10:56:35;26.80;11.40
11399;DHT22;5755;48.116;11.608;2023-07-20T10:59:17;27.20;10.70
11399;DHT22;5755;48.116;11.608;2023-07-20T11:01:46;28.00;8.10
11399;DHT22;5755;48.116;11.608;2023-07-20T11:04:15;27.70;9.60
11399;DHT22;5755;48.116;11.608;2023-07-20T11:06:45;27.00;10.40
11399;DHT22;5755;48.116;11.608;2023-07-20T11:09:14;26.50;14.90
11399;DHT22;5755;48.116;11.608;2023-07-20T11:11:42;26.40;10.60
11399;DHT22;5755;48.116;11.608;2023-07-20T11:14:10;26.50;11.10
11399;DHT22;5755;48.116;11.608;2023-07-20T11:16:40;26.60;13.70
11399;DHT22;5755;48.116;11.608;2023-07-20T11:19:14;27.20;9.40
11399;DHT22;5755;48.116;11.608;2023-07-20T11:21:43;27.20;9.30
11399;DHT22;5755;48.116;11.608;2023-07-20T11:24:10;26.40;12.50
11399;DHT22;5755;48.116;11.608;2023-07-20T11:26:44;25.90;12.80
11399;DHT22;5755;48.116;11.608;2023-07-20T11:29:12;25.60;12.00
11399;DHT22;5755;48.116;11.608;2023-07-20T11:31:39;25.60;12.70
11399;DHT22;5755;48.116;11.608;2023-07-20T11:34:09;25.30;13.60
11399;DHT22;5755;48.116;11.608;2023-07-20T11:36:36;25.10;14.20
11399;DHT22;5755;48.116;11.608;2023-07-20T11:39:04;25.30;12.10
11399;DHT22;5755;48.116;11.608;2023-07-20T11:41:33;25.40;11.30
11399;DHT22;5755;48.116;11.608;2023-07-20T11:44:01;25.40;12.00
11399;DHT22;5755;48.116;11.608;2023-07-20T11:46:29;25.50;11.70
11399;DHT22;5755;48.116;11.608;2023-07-20T11:48:57;25.50;13.00
11399;DHT22;5755;48.116;11.608;2023-07-20T11:51:26;25.50;12.40
11399;DHT22;5755;48.116;11.608;2023-07-20T11:53:53;25.60;12.60
11399;DHT22;5755;48.116;11.608;2023-07-20T11:56:20;25.90;13.00
11399;DHT22;5755;48.116;11.608;2023-07-20T11:58:48;26.30;11.00
11399;DHT22;5755;48.116;11.608;2023-07-20T12:01:17;26.70;11.00
11399;DHT22;5755;48.116;11.608;2023-07-20T12:03:45;26.60;9.40
11399;DHT22;5755;48.116;11.608;2023-07-20T12:06:14;26.50;11.80
11399;DHT22;5755;48.116;11.608;2023-07-20T12:08:42;26.50;10.40
11399;DHT22;5755;48.116;11.608;2023-07-20T12:11:10;26.70;11.20
11399;DHT22;5755;48.116;11.608;2023-07-20T12:13:38;26.40;10.70
11399;DHT22;5755;48.116;11.608;2023-07-20T12:16:13;26.30;12.00
11399;DHT22;5755;48.116;11.608;2023-07-20T12:18:42;26.30;13.50
11399;DHT22;5755;48.116;11.608;2023-07-20T12:21:09;26.40;10.80
11399;DHT22;5755;48.116;11.608;2023-07-20T12:23:37;26.50;11.00
11399;DHT22;5755;48.116;11.608;2023-07-20T12:26:06;26.40;11.70
11399;DHT22;5755;48.116;11.608;2023-07-20T12:28:38;26.70;11.50
11399;DHT22;5755;48.116;11.608;2023-07-20T12:31:05;26.70;10.20
11399;DHT22;5755;48.116;11.608;2023-07-20T12:33:32;26.80;12.80
11399;DHT22;5755;48.116;11.608;2023-07-20T12:36:01;26.80;11.20
11399;DHT22;5755;48.116;11.608;2023-07-20T12:38:27;26.70;10.20
11399;DHT22;5755;48.116;11.608;2023-07-20T12:40:56;26.60;11.10
11399;DHT22;5755;48.116;11.608;2023-07-20T12:43:24;26.70;10.90
11399;DHT22;5755;48.116;11.608;2023-07-20T12:45:51;26.20;9.90
11399;DHT22;5755;48.116;11.608;2023-07-20T12:48:18;26.10;11.00
11399;DHT22;5755;48.116;11.608;2023-07-20T12:50:44;26.00;10.30
11399;DHT22;5755;48.116;11.608;2023-07-20T12:53:13;26.00;10.90
11399;DHT22;5755;48.116;11.608;2023-07-20T12:55:40;26.30;11.30
11399;DHT22;5755;48.116;11.608;2023-07-20T12:58:08;26.30;10.50
11399;DHT22;5755;48.116;11.608;2023-07-20T13:00:35;26.30;10.90
11399;DHT22;5755;48.116;11.608;2023-07-20T13:03:01;26.30;10.70
11399;DHT22;5755;48.116;11.608;2023-07-20T13:05:30;26.20;10.60
11399;DHT22;5755;48.116;11.608;2023-07-20T13:07:58;25.90;10.90
11399;DHT22;5755;48.116;11.608;2023-07-20T13:10:27;25.90;12.20
11399;DHT22;5755;48.116;11.608;2023-07-20T13:12:54;26.00;13.00
11399;DHT22;5755;48.116;11.608;2023-07-20T13:15:23;26.20;11.90
11399;DHT22;5755;48.116;11.608;2023-07-20T13:17:50;26.20;11.00
11399;DHT22;5755;48.116;11.608;2023-07-20T13:20:17;26.40;10.30
11399;DHT22;5755;48.116;11.608;2023-07-20T13:22:44;26.40;10.70
11399;DHT22;5755;48.116;11.608;2023-07-20T13:25:11;26.50;9.80
11399;DHT22;5755;48.116;11.608;2023-07-20T13:27:40;26.60;11.00
11399;DHT22;5755;48.116;11.608;2023-07-20T13:30:07;26.70;11.90
11399;DHT22;5755;48.116;11.608;2023-07-20T13:32:40;26.40;10.70
11399;DHT22;5755;48.116;11.608;2023-07-20T13:35:07;26.00;10.10
11399;DHT22;5755;48.116;11.608;2023-07-20T13:37:34;26.00;11.00
11399;DHT22;5755;48.116;11.608;2023-07-20T13:40:01;25.60;11.80
11399;DHT22;5755;48.116;11.608;2023-07-20T13:42:28;25.40;12.40
11399;DHT22;5755;48.116;11.608;2023-07-20T13:44:57;25.40;13.70
11399;DHT22;5755;48.116;11.608;2023-07-20T13:47:24;25.60;12.70
11399;DHT22;5755;48.116;11.608;2023-07-20T13:49:50;26.00;12.20
11399;DHT22;5755;48.116;11.608;2023-07-20T13:52:17;26.30;10.90
11399;DHT22;5755;48.116;11.608;2023-07-20T13:54:44;26.30;9.80
11399;DHT22;5755;48.116;11.608;2023-07-20T13:57:11;26.10;10.30
11399;DHT22;5755;48.116;11.608;2023-07-20T13:59:38;26.10;10.30
11399;DHT22;5755;48.116;11.608;2023-07-20T14:02:07;26.10;10.40
11399;DHT22;5755;48.116;11.608;2023-07-20T14:04:33;26.00;11.00
11399;DHT22;5755;48.116;11.608;2023-07-20T14:07:01;25.90;10.50
11399;DHT22;5755;48.116;11.608;2023-07-20T14:09:28;25.80;10.70
11399;DHT22;5755;48.116;11.608;2023-07-20T14:11:54;25.60;11.20
11399;DHT22;5755;48.116;11.608;2023-07-20T14:14:21;25.60;11.00
11399;DHT22;5755;48.116;11.608;2023-07-20T14:16:48;25.80;10.60
11399;DHT22;5755;48.116;11.608;2023-07-20T14:19:16;25.70;12.10
11399;DHT22;5755;48.116;11.608;2023-07-20T14:21:44;25.60;12.30
11399;DHT22;5755;48.116;11.608;2023-07-20T14:24:24;25.40;11.30
11399;DHT22;5755;48.116;11.608;2023-07-20T14:26:51;25.40;11.40
11399;DHT22;5755;48.116;11.608;2023-07-20T14:29:20;25.60;10.50
11399;DHT22;5755;48.116;11.608;2023-07-20T14:31:47;25.50;11.40
11399;DHT22;5755;48.116;11.608;2023-07-20T14:34:17;25.50;12.00
11399;DHT22;5755;48.116;11.608;2023-07-20T14:36:44;25.70;11.50
11399;DHT22;5755;48.116;11.608;2023-07-20T14:39:11;25.90;10.50
11399;DHT22;5755;48.116;11.608;2023-07-20T14:41:39;25.90;10.10
11399;DHT22;5755;48.116;11.608;2023-07-20T14:44:06;25.90;10.00
11399;DHT22;5755;48.116;11.608;2023-07-20T14:46:32;25.70;10.00
11399;DHT22;5755;48.116;11.608;2023-07-20T14:48:59;25.60;9.80
11399;DHT22;5755;48.116;11.608;2023-07-20T14:51:29;25.60;9.70
11399;DHT22;5755;48.116;11.608;2023-07-20T14:53:58;25.60;10.20
11399;DHT22;5755;48.116;11.608;2023-07-20T14:56:25;25.60;10.20
11399;DHT22;5755;48.116;11.608;2023-07-20T14:58:53;25.60;10.20
11399;DHT22;5755;48.116;11.608;2023-07-20T15:01:20;25.60;10.60
11399;DHT22;5755;48.116;11.608;2023-07-20T15:03:47;25.60;10.20
11399;DHT22;5755;48.116;11.608;2023-07-20T15:06:15;25.60;10.20
11399;DHT22;5755;48.116;11.608;2023-07-20T15:08:44;25.70;11.00
11399;DHT22;5755;48.116;11.608;2023-07-20T15:11:11;25.60;11.80
11399;DHT22;5755;48.116;11.608;2023-07-20T15:13:38;25.30;11.80
11399;DHT22;5755;48.116;11.608;2023-07-20T15:16:07;25.30;11.60
11399;DHT22;5755;48.116;11.608;2023-07-20T15:18:35;25.30;11.60
11399;DHT22;5755;48.116;11.608;2023-07-20T15:21:01;25.40;12.70
11399;DHT22;5755;48.116;11.608;2023-07-20T15:23:28;25.40;11.50
11399;DHT22;5755;48.116;11.608;2023-07-20T15:25:57;25.60;11.80
11399;DHT22;5755;48.116;11.608;2023-07-20T15:28:24;25.50;11.70
11399;DHT22;5755;48.116;11.608;2023-07-20T15:30:59;25.50;11.10
11399;DHT22;5755;48.116;11.608;2023-07-20T15:33:25;25.40;11.90
11399;DHT22;5755;48.116;11.608;2023-07-20T15:35:52;25.40;11.20
11399;DHT22;5755;48.116;11.608;2023-07-20T15:38:19;25.40;11.50